sensor_id;sensor_type;location;lat;lon;timestamp;P1;durP1;ratioP1;P2;durP2;ratioP2
55483;SDS011;41345;51.704;5.146;2023-03-08T00:02:05;45.67;;;41.42;;
55483;SDS011;41345;51.704;5.146;2023-03-08T00:07:05;45.03;;;40.87;;
55483;SDS011;41345;51.704;5.146;2023-03-08T00:12:05;46.38;;;42.08;;
55483;SDS011;41345;51.704;5.146;2023-03-08T00:17:06;46.72;;;42.15;;
55483;SDS011;41345;51.704;5.146;2023-03-08T00:22:07;41.97;;;38.33;;
55483;SDS011;41345;51.704;5.146;2023-03-08T00:27:07;38.97;;;35.75;;
55483;SDS011;41345;51.704;5.146;2023-03-08T00:32:07;42.85;;;38.90;;
55483;SDS011;41345;51.704;5.146;2023-03-08T00:37:07;40.17;;;36.70;;
55483;SDS011;41345;51.704;5.146;2023-03-08T00:42:08;41.58;;;37.83;;
55483;SDS011;41345;51.704;5.146;2023-03-08T00:47:08;41.95;;;38.42;;
55483;SDS011;41345;51.704;5.146;2023-03-08T00:52:09;42.78;;;38.92;;
55483;SDS011;41345;51.704;5.146;2023-03-08T00:57:09;44.05;;;39.97;;
55483;SDS011;41345;51.704;5.146;2023-03-08T01:02:09;43.97;;;39.85;;
55483;SDS011;41345;51.704;5.146;2023-03-08T01:07:10;48.58;;;43.67;;
55483;SDS011;41345;51.704;5.146;2023-03-08T01:12:10;53.45;;;47.80;;
55483;SDS011;41345;51.704;5.146;2023-03-08T01:17:10;51.85;;;46.83;;
55483;SDS011;41345;51.704;5.146;2023-03-08T01:22:11;54.93;;;47.97;;
55483;SDS011;41345;51.704;5.146;2023-03-08T01:27:11;52.80;;;47.40;;
55483;SDS011;41345;51.704;5.146;2023-03-08T01:32:12;51.10;;;45.88;;
55483;SDS011;41345;51.704;5.146;2023-03-08T01:37:12;54.38;;;47.20;;
55483;SDS011;41345;51.704;5.146;2023-03-08T01:42:12;53.08;;;47.75;;
55483;SDS011;41345;51.704;5.146;2023-03-08T01:47:16;53.58;;;48.22;;
55483;SDS011;41345;51.704;5.146;2023-03-08T01:52:18;58.67;;;52.35;;
55483;SDS011;41345;51.704;5.146;2023-03-08T02:02:23;56.85;;;51.15;;
55483;SDS011;41345;51.704;5.146;2023-03-08T02:07:24;59.95;;;53.58;;
55483;SDS011;41345;51.704;5.146;2023-03-08T02:12:24;59.75;;;53.40;;
55483;SDS011;41345;51.704;5.146;2023-03-08T02:17:25;59.67;;;53.40;;
55483;SDS011;41345;51.704;5.146;2023-03-08T02:22:25;61.75;;;55.17;;
55483;SDS011;41345;51.704;5.146;2023-03-08T02:27:25;61.10;;;54.87;;
55483;SDS011;41345;51.704;5.146;2023-03-08T02:32:26;66.30;;;57.80;;
55483;SDS011;41345;51.704;5.146;2023-03-08T02:37:26;68.72;;;59.42;;
55483;SDS011;41345;51.704;5.146;2023-03-08T02:42:26;71.13;;;59.55;;
55483;SDS011;41345;51.704;5.146;2023-03-08T02:47:26;68.32;;;58.80;;
55483;SDS011;41345;51.704;5.146;2023-03-08T02:52:27;74.50;;;60.92;;
55483;SDS011;41345;51.704;5.146;2023-03-08T02:57:27;78.93;;;61.10;;
55483;SDS011;41345;51.704;5.146;2023-03-08T03:02:27;76.50;;;64.03;;
55483;SDS011;41345;51.704;5.146;2023-03-08T03:07:28;83.63;;;63.70;;
55483;SDS011;41345;51.704;5.146;2023-03-08T03:12:28;81.97;;;61.65;;
55483;SDS011;41345;51.704;5.146;2023-03-08T03:17:28;109.80;;;67.55;;
55483;SDS011;41345;51.704;5.146;2023-03-08T03:22:28;116.65;;;67.75;;
55483;SDS011;41345;51.704;5.146;2023-03-08T03:27:29;153.17;;;69.87;;
55483;SDS011;41345;51.704;5.146;2023-03-08T03:32:29;203.63;;;75.95;;
55483;SDS011;41345;51.704;5.146;2023-03-08T03:37:29;173.13;;;72.88;;
55483;SDS011;41345;51.704;5.146;2023-03-08T03:42:30;341.20;;;82.53;;
55483;SDS011;41345;51.704;5.146;2023-03-08T03:47:30;280.55;;;77.13;;
55483;SDS011;41345;51.704;5.146;2023-03-08T03:52:30;311.38;;;76.82;;
55483;SDS011;41345;51.704;5.146;2023-03-08T03:57:31;212.25;;;71.90;;
55483;SDS011;41345;51.704;5.146;2023-03-08T04:02:31;334.00;;;76.63;;
55483;SDS011;41345;51.704;5.146;2023-03-08T04:07:31;244.02;;;70.43;;
55483;SDS011;41345;51.704;5.146;2023-03-08T04:12:32;327.67;;;75.65;;
55483;SDS011;41345;51.704;5.146;2023-03-08T04:17:32;312.00;;;74.78;;
55483;SDS011;41345;51.704;5.146;2023-03-08T04:22:32;382.65;;;76.82;;
55483;SDS011;41345;51.704;5.146;2023-03-08T04:27:33;538.28;;;86.00;;
55483;SDS011;41345;51.704;5.146;2023-03-08T04:32:33;500.98;;;82.35;;
55483;SDS011;41345;51.704;5.146;2023-03-08T04:37:33;421.05;;;74.20;;
55483;SDS011;41345;51.704;5.146;2023-03-08T04:42:36;357.70;;;72.88;;
55483;SDS011;41345;51.704;5.146;2023-03-08T04:47:36;385.30;;;76.03;;
55483;SDS011;41345;51.704;5.146;2023-03-08T04:52:36;223.10;;;66.13;;
55483;SDS011;41345;51.704;5.146;2023-03-08T04:57:37;343.13;;;74.53;;
55483;SDS011;41345;51.704;5.146;2023-03-08T05:02:37;203.35;;;64.25;;
55483;SDS011;41345;51.704;5.146;2023-03-08T05:07:37;334.95;;;74.47;;
55483;SDS011;41345;51.704;5.146;2023-03-08T05:12:37;225.47;;;68.00;;
55483;SDS011;41345;51.704;5.146;2023-03-08T05:17:38;240.23;;;65.88;;
55483;SDS011;41345;51.704;5.146;2023-03-08T05:22:38;264.58;;;67.10;;
55483;SDS011;41345;51.704;5.146;2023-03-08T05:27:38;213.90;;;69.63;;
55483;SDS011;41345;51.704;5.146;2023-03-08T05:32:39;271.58;;;71.22;;
55483;SDS011;41345;51.704;5.146;2023-03-08T05:37:39;231.25;;;70.43;;
55483;SDS011;41345;51.704;5.146;2023-03-08T05:42:39;195.60;;;69.07;;
55483;SDS011;41345;51.704;5.146;2023-03-08T05:47:40;238.70;;;74.30;;
55483;SDS011;41345;51.704;5.146;2023-03-08T05:52:40;160.23;;;65.57;;
55483;SDS011;41345;51.704;5.146;2023-03-08T05:57:41;153.88;;;66.85;;
55483;SDS011;41345;51.704;5.146;2023-03-08T06:02:41;142.00;;;65.63;;
55483;SDS011;41345;51.704;5.146;2023-03-08T06:07:42;132.07;;;63.42;;
55483;SDS011;41345;51.704;5.146;2023-03-08T06:12:43;124.78;;;63.58;;
55483;SDS011;41345;51.704;5.146;2023-03-08T06:17:43;142.73;;;62.38;;
55483;SDS011;41345;51.704;5.146;2023-03-08T06:22:44;108.53;;;59.27;;
55483;SDS011;41345;51.704;5.146;2023-03-08T06:27:44;101.53;;;55.55;;
55483;SDS011;41345;51.704;5.146;2023-03-08T06:32:44;92.90;;;53.42;;
55483;SDS011;41345;51.704;5.146;2023-03-08T06:37:45;87.20;;;51.08;;
55483;SDS011;41345;51.704;5.146;2023-03-08T06:42:46;67.25;;;47.88;;
55483;SDS011;41345;51.704;5.146;2023-03-08T06:47:46;64.30;;;47.63;;
55483;SDS011;41345;51.704;5.146;2023-03-08T06:52:46;68.07;;;46.70;;
55483;SDS011;41345;51.704;5.146;2023-03-08T06:57:46;63.08;;;46.08;;
55483;SDS011;41345;51.704;5.146;2023-03-08T07:02:47;64.97;;;46.80;;
55483;SDS011;41345;51.704;5.146;2023-03-08T07:07:48;58.67;;;45.72;;
55483;SDS011;41345;51.704;5.146;2023-03-08T07:12:49;53.03;;;45.85;;
55483;SDS011;41345;51.704;5.146;2023-03-08T07:17:51;51.53;;;42.85;;
55483;SDS011;41345;51.704;5.146;2023-03-08T07:22:53;61.80;;;46.22;;
55483;SDS011;41345;51.704;5.146;2023-03-08T07:27:54;58.88;;;45.33;;
55483;SDS011;41345;51.704;5.146;2023-03-08T07:32:54;57.42;;;46.47;;
55483;SDS011;41345;51.704;5.146;2023-03-08T07:37:54;54.70;;;44.63;;
55483;SDS011;41345;51.704;5.146;2023-03-08T07:42:55;58.28;;;46.50;;
55483;SDS011;41345;51.704;5.146;2023-03-08T07:47:55;58.53;;;45.10;;
55483;SDS011;41345;51.704;5.146;2023-03-08T07:52:57;48.38;;;42.08;;
55483;SDS011;41345;51.704;5.146;2023-03-08T07:57:57;46.75;;;40.13;;
55483;SDS011;41345;51.704;5.146;2023-03-08T08:02:58;44.60;;;39.80;;
55483;SDS011;41345;51.704;5.146;2023-03-08T08:07:58;48.20;;;39.53;;
55483;SDS011;41345;51.704;5.146;2023-03-08T08:12:58;44.53;;;39.80;;
55483;SDS011;41345;51.704;5.146;2023-03-08T08:17:59;44.33;;;39.72;;
55483;SDS011;41345;51.704;5.146;2023-03-08T08:22:59;43.05;;;38.72;;
55483;SDS011;41345;51.704;5.146;2023-03-08T08:27:59;42.25;;;38.05;;
55483;SDS011;41345;51.704;5.146;2023-03-08T08:33:00;41.45;;;37.50;;
55483;SDS011;41345;51.704;5.146;2023-03-08T08:38:02;41.00;;;37.35;;
55483;SDS011;41345;51.704;5.146;2023-03-08T08:43:02;40.83;;;37.05;;
55483;SDS011;41345;51.704;5.146;2023-03-08T08:48:02;40.97;;;36.97;;
55483;SDS011;41345;51.704;5.146;2023-03-08T08:53:03;41.13;;;36.83;;
55483;SDS011;41345;51.704;5.146;2023-03-08T08:58:04;40.92;;;37.15;;
55483;SDS011;41345;51.704;5.146;2023-03-08T09:03:05;42.35;;;38.13;;
55483;SDS011;41345;51.704;5.146;2023-03-08T09:08:06;39.67;;;36.10;;
55483;SDS011;41345;51.704;5.146;2023-03-08T09:13:06;40.30;;;36.42;;
55483;SDS011;41345;51.704;5.146;2023-03-08T09:18:07;40.03;;;36.42;;
55483;SDS011;41345;51.704;5.146;2023-03-08T09:23:07;38.90;;;35.42;;
55483;SDS011;41345;51.704;5.146;2023-03-08T09:28:11;39.30;;;35.95;;
55483;SDS011;41345;51.704;5.146;2023-03-08T09:33:12;39.72;;;36.05;;
55483;SDS011;41345;51.704;5.146;2023-03-08T09:38:12;39.92;;;36.42;;
55483;SDS011;41345;51.704;5.146;2023-03-08T09:43:15;39.47;;;36.03;;
55483;SDS011;41345;51.704;5.146;2023-03-08T09:48:21;40.45;;;36.65;;
55483;SDS011;41345;51.704;5.146;2023-03-08T09:53:27;39.75;;;35.92;;
55483;SDS011;41345;51.704;5.146;2023-03-08T10:03:32;40.30;;;36.70;;
55483;SDS011;41345;51.704;5.146;2023-03-08T10:08:51;43.45;;;39.45;;
55483;SDS011;41345;51.704;5.146;2023-03-08T10:13:55;40.30;;;36.28;;
55483;SDS011;41345;51.704;5.146;2023-03-08T10:23:58;41.28;;;36.88;;
55483;SDS011;41345;51.704;5.146;2023-03-08T10:28:59;40.42;;;36.13;;
55483;SDS011;41345;51.704;5.146;2023-03-08T10:34:09;40.85;;;36.63;;
55483;SDS011;41345;51.704;5.146;2023-03-08T10:39:10;41.15;;;36.80;;
55483;SDS011;41345;51.704;5.146;2023-03-08T10:44:15;40.10;;;36.10;;
55483;SDS011;41345;51.704;5.146;2023-03-08T10:49:27;34.22;;;31.13;;
55483;SDS011;41345;51.704;5.146;2023-03-08T10:54:28;37.70;;;34.20;;
55483;SDS011;41345;51.704;5.146;2023-03-08T10:59:29;34.55;;;31.17;;
55483;SDS011;41345;51.704;5.146;2023-03-08T11:04:33;30.25;;;27.48;;
55483;SDS011;41345;51.704;5.146;2023-03-08T11:09:33;32.55;;;29.90;;
55483;SDS011;41345;51.704;5.146;2023-03-08T11:14:35;31.85;;;28.95;;
55483;SDS011;41345;51.704;5.146;2023-03-08T11:35:10;27.35;;;24.95;;
55483;SDS011;41345;51.704;5.146;2023-03-08T11:50:52;30.45;;;27.90;;
55483;SDS011;41345;51.704;5.146;2023-03-08T12:00:58;33.10;;;30.20;;
55483;SDS011;41345;51.704;5.146;2023-03-08T12:06:01;30.88;;;28.08;;
55483;SDS011;41345;51.704;5.146;2023-03-08T12:11:04;31.15;;;28.35;;
55483;SDS011;41345;51.704;5.146;2023-03-08T12:26:32;30.83;;;28.17;;
55483;SDS011;41345;51.704;5.146;2023-03-08T12:31:39;31.02;;;28.10;;
55483;SDS011;41345;51.704;5.146;2023-03-08T12:36:41;27.73;;;25.13;;
55483;SDS011;41345;51.704;5.146;2023-03-08T12:41:41;29.00;;;26.27;;
55483;SDS011;41345;51.704;5.146;2023-03-08T12:46:51;27.85;;;25.35;;
55483;SDS011;41345;51.704;5.146;2023-03-08T12:51:56;26.23;;;23.83;;
55483;SDS011;41345;51.704;5.146;2023-03-08T12:56:57;28.77;;;26.00;;
55483;SDS011;41345;51.704;5.146;2023-03-08T13:01:59;25.48;;;23.17;;
55483;SDS011;41345;51.704;5.146;2023-03-08T13:17:28;24.98;;;22.63;;
55483;SDS011;41345;51.704;5.146;2023-03-08T13:22:32;26.07;;;23.67;;
55483;SDS011;41345;51.704;5.146;2023-03-08T13:32:35;23.75;;;21.58;;
55483;SDS011;41345;51.704;5.146;2023-03-08T13:37:38;23.48;;;21.27;;
55483;SDS011;41345;51.704;5.146;2023-03-08T13:42:38;22.52;;;20.33;;
55483;SDS011;41345;51.704;5.146;2023-03-08T13:47:51;21.25;;;19.45;;
55483;SDS011;41345;51.704;5.146;2023-03-08T13:52:53;20.88;;;19.08;;
55483;SDS011;41345;51.704;5.146;2023-03-08T13:57:53;21.25;;;19.55;;
55483;SDS011;41345;51.704;5.146;2023-03-08T14:02:54;19.50;;;17.80;;
55483;SDS011;41345;51.704;5.146;2023-03-08T14:08:00;16.70;;;15.10;;
55483;SDS011;41345;51.704;5.146;2023-03-08T14:13:02;18.08;;;16.38;;
55483;SDS011;41345;51.704;5.146;2023-03-08T14:18:03;20.85;;;19.05;;
55483;SDS011;41345;51.704;5.146;2023-03-08T14:23:13;19.35;;;17.45;;
55483;SDS011;41345;51.704;5.146;2023-03-08T14:28:33;19.60;;;17.85;;
55483;SDS011;41345;51.704;5.146;2023-03-08T14:33:33;18.67;;;16.92;;
55483;SDS011;41345;51.704;5.146;2023-03-08T14:38:34;19.70;;;17.80;;
55483;SDS011;41345;51.704;5.146;2023-03-08T14:43:34;22.13;;;20.13;;
55483;SDS011;41345;51.704;5.146;2023-03-08T14:48:36;21.13;;;19.23;;
55483;SDS011;41345;51.704;5.146;2023-03-08T14:53:37;21.75;;;19.52;;
55483;SDS011;41345;51.704;5.146;2023-03-08T14:58:42;20.65;;;18.65;;
55483;SDS011;41345;51.704;5.146;2023-03-08T15:03:43;21.67;;;19.83;;
55483;SDS011;41345;51.704;5.146;2023-03-08T15:08:43;21.13;;;19.13;;
55483;SDS011;41345;51.704;5.146;2023-03-08T15:13:43;22.38;;;20.27;;
55483;SDS011;41345;51.704;5.146;2023-03-08T15:18:45;22.10;;;20.10;;
55483;SDS011;41345;51.704;5.146;2023-03-08T15:23:45;21.55;;;19.63;;
55483;SDS011;41345;51.704;5.146;2023-03-08T15:28:46;21.40;;;19.40;;
55483;SDS011;41345;51.704;5.146;2023-03-08T15:33:46;22.40;;;20.40;;
55483;SDS011;41345;51.704;5.146;2023-03-08T15:38:47;25.10;;;22.80;;
55483;SDS011;41345;51.704;5.146;2023-03-08T15:43:47;23.50;;;21.40;;
55483;SDS011;41345;51.704;5.146;2023-03-08T15:48:47;22.15;;;20.25;;
55483;SDS011;41345;51.704;5.146;2023-03-08T15:53:49;22.20;;;20.23;;
55483;SDS011;41345;51.704;5.146;2023-03-08T15:58:53;25.83;;;23.50;;
55483;SDS011;41345;51.704;5.146;2023-03-08T16:03:54;26.42;;;24.15;;
55483;SDS011;41345;51.704;5.146;2023-03-08T16:08:55;27.88;;;25.48;;
55483;SDS011;41345;51.704;5.146;2023-03-08T16:13:55;27.55;;;25.30;;
55483;SDS011;41345;51.704;5.146;2023-03-08T16:18:56;30.48;;;27.98;;
55483;SDS011;41345;51.704;5.146;2023-03-08T16:23:57;31.10;;;28.48;;
55483;SDS011;41345;51.704;5.146;2023-03-08T16:28:58;30.58;;;28.02;;
55483;SDS011;41345;51.704;5.146;2023-03-08T16:34:02;30.75;;;28.05;;
55483;SDS011;41345;51.704;5.146;2023-03-08T16:39:03;32.17;;;29.53;;
55483;SDS011;41345;51.704;5.146;2023-03-08T16:44:05;31.63;;;29.00;;
55483;SDS011;41345;51.704;5.146;2023-03-08T16:49:05;31.67;;;28.92;;
55483;SDS011;41345;51.704;5.146;2023-03-08T16:54:05;34.45;;;31.45;;
55483;SDS011;41345;51.704;5.146;2023-03-08T16:59:06;34.13;;;31.13;;
55483;SDS011;41345;51.704;5.146;2023-03-08T17:04:06;34.33;;;31.33;;
55483;SDS011;41345;51.704;5.146;2023-03-08T17:09:07;34.80;;;31.90;;
55483;SDS011;41345;51.704;5.146;2023-03-08T17:14:08;36.20;;;33.00;;
55483;SDS011;41345;51.704;5.146;2023-03-08T17:19:09;39.25;;;36.08;;
55483;SDS011;41345;51.704;5.146;2023-03-08T17:24:11;38.55;;;35.20;;
55483;SDS011;41345;51.704;5.146;2023-03-08T17:29:12;38.10;;;34.80;;
55483;SDS011;41345;51.704;5.146;2023-03-08T17:34:12;40.38;;;36.95;;
55483;SDS011;41345;51.704;5.146;2023-03-08T17:39:12;41.57;;;37.77;;
55483;SDS011;41345;51.704;5.146;2023-03-08T17:44:13;40.90;;;37.40;;
55483;SDS011;41345;51.704;5.146;2023-03-08T17:49:13;43.10;;;39.07;;
55483;SDS011;41345;51.704;5.146;2023-03-08T17:54:16;43.60;;;39.90;;
55483;SDS011;41345;51.704;5.146;2023-03-08T17:59:17;44.75;;;40.85;;
55483;SDS011;41345;51.704;5.146;2023-03-08T18:04:17;44.85;;;40.95;;
55483;SDS011;41345;51.704;5.146;2023-03-08T18:09:18;44.25;;;40.13;;
55483;SDS011;41345;51.704;5.146;2023-03-08T18:14:18;43.17;;;39.38;;
55483;SDS011;41345;51.704;5.146;2023-03-08T18:19:18;42.67;;;38.72;;
55483;SDS011;41345;51.704;5.146;2023-03-08T18:24:19;43.78;;;39.83;;
55483;SDS011;41345;51.704;5.146;2023-03-08T18:29:19;42.95;;;38.88;;
55483;SDS011;41345;51.704;5.146;2023-03-08T18:34:20;44.50;;;40.05;;
55483;SDS011;41345;51.704;5.146;2023-03-08T18:39:20;43.10;;;39.05;;
55483;SDS011;41345;51.704;5.146;2023-03-08T18:44:20;43.20;;;39.05;;
55483;SDS011;41345;51.704;5.146;2023-03-08T18:49:20;43.33;;;38.92;;
55483;SDS011;41345;51.704;5.146;2023-03-08T18:54:21;43.60;;;39.23;;
55483;SDS011;41345;51.704;5.146;2023-03-08T18:59:21;42.60;;;38.53;;
55483;SDS011;41345;51.704;5.146;2023-03-08T19:04:22;45.92;;;41.15;;
55483;SDS011;41345;51.704;5.146;2023-03-08T19:09:22;44.55;;;39.90;;
55483;SDS011;41345;51.704;5.146;2023-03-08T19:14:22;42.38;;;38.00;;
55483;SDS011;41345;51.704;5.146;2023-03-08T19:19:23;43.45;;;38.78;;
55483;SDS011;41345;51.704;5.146;2023-03-08T19:24:23;44.13;;;39.67;;
55483;SDS011;41345;51.704;5.146;2023-03-08T19:29:26;42.80;;;38.42;;
55483;SDS011;41345;51.704;5.146;2023-03-08T19:34:28;47.30;;;40.05;;
55483;SDS011;41345;51.704;5.146;2023-03-08T19:39:30;45.22;;;37.85;;
55483;SDS011;41345;51.704;5.146;2023-03-08T19:44:31;46.03;;;39.25;;
55483;SDS011;41345;51.704;5.146;2023-03-08T19:49:32;44.85;;;40.15;;
55483;SDS011;41345;51.704;5.146;2023-03-08T19:54:33;49.05;;;43.97;;
55483;SDS011;41345;51.704;5.146;2023-03-08T19:59:33;52.00;;;44.33;;
55483;SDS011;41345;51.704;5.146;2023-03-08T20:04:36;47.95;;;42.88;;
55483;SDS011;41345;51.704;5.146;2023-03-08T20:09:36;47.63;;;42.40;;
55483;SDS011;41345;51.704;5.146;2023-03-08T20:14:37;48.35;;;43.42;;
55483;SDS011;41345;51.704;5.146;2023-03-08T20:19:37;48.10;;;43.13;;
55483;SDS011;41345;51.704;5.146;2023-03-08T20:24:37;47.00;;;42.22;;
55483;SDS011;41345;51.704;5.146;2023-03-08T20:29:38;48.70;;;43.50;;
55483;SDS011;41345;51.704;5.146;2023-03-08T20:34:38;50.47;;;43.20;;
55483;SDS011;41345;51.704;5.146;2023-03-08T20:39:38;50.38;;;44.88;;
55483;SDS011;41345;51.704;5.146;2023-03-08T20:44:38;50.40;;;43.95;;
55483;SDS011;41345;51.704;5.146;2023-03-08T20:49:39;51.00;;;45.25;;
55483;SDS011;41345;51.704;5.146;2023-03-08T20:54:40;50.60;;;45.30;;
55483;SDS011;41345;51.704;5.146;2023-03-08T20:59:41;50.53;;;45.30;;
55483;SDS011;41345;51.704;5.146;2023-03-08T21:04:41;51.37;;;45.87;;
55483;SDS011;41345;51.704;5.146;2023-03-08T21:09:42;49.72;;;43.42;;
55483;SDS011;41345;51.704;5.146;2023-03-08T21:14:42;50.42;;;42.90;;
55483;SDS011;41345;51.704;5.146;2023-03-08T21:19:42;50.88;;;43.47;;
55483;SDS011;41345;51.704;5.146;2023-03-08T21:24:43;50.13;;;41.83;;
55483;SDS011;41345;51.704;5.146;2023-03-08T21:29:43;49.92;;;41.92;;
55483;SDS011;41345;51.704;5.146;2023-03-08T21:34:43;48.60;;;41.60;;
55483;SDS011;41345;51.704;5.146;2023-03-08T21:39:43;50.03;;;41.27;;
55483;SDS011;41345;51.704;5.146;2023-03-08T21:44:44;48.22;;;42.53;;
55483;SDS011;41345;51.704;5.146;2023-03-08T21:49:44;49.88;;;42.35;;
55483;SDS011;41345;51.704;5.146;2023-03-08T21:54:44;46.55;;;41.00;;
55483;SDS011;41345;51.704;5.146;2023-03-08T21:59:45;53.27;;;45.03;;
55483;SDS011;41345;51.704;5.146;2023-03-08T22:04:45;51.53;;;43.20;;
55483;SDS011;41345;51.704;5.146;2023-03-08T22:09:46;53.42;;;45.95;;
55483;SDS011;41345;51.704;5.146;2023-03-08T22:14:46;48.87;;;43.50;;
55483;SDS011;41345;51.704;5.146;2023-03-08T22:19:46;52.65;;;46.30;;
55483;SDS011;41345;51.704;5.146;2023-03-08T22:24:46;53.47;;;43.67;;
55483;SDS011;41345;51.704;5.146;2023-03-08T22:29:47;53.17;;;46.30;;
55483;SDS011;41345;51.704;5.146;2023-03-08T22:34:47;60.55;;;46.97;;
55483;SDS011;41345;51.704;5.146;2023-03-08T22:39:47;54.10;;;45.88;;
55483;SDS011;41345;51.704;5.146;2023-03-08T22:44:48;60.47;;;48.88;;
55483;SDS011;41345;51.704;5.146;2023-03-08T22:49:49;56.08;;;46.85;;
55483;SDS011;41345;51.704;5.146;2023-03-08T22:54:50;66.85;;;48.95;;
55483;SDS011;41345;51.704;5.146;2023-03-08T22:59:54;58.28;;;46.88;;
55483;SDS011;41345;51.704;5.146;2023-03-08T23:04:57;58.57;;;47.07;;
55483;SDS011;41345;51.704;5.146;2023-03-08T23:09:57;60.80;;;45.88;;
55483;SDS011;41345;51.704;5.146;2023-03-08T23:14:57;68.75;;;50.97;;
55483;SDS011;41345;51.704;5.146;2023-03-08T23:19:58;64.18;;;47.42;;
55483;SDS011;41345;51.704;5.146;2023-03-08T23:24:59;54.93;;;46.90;;
55483;SDS011;41345;51.704;5.146;2023-03-08T23:29:59;58.75;;;47.97;;
55483;SDS011;41345;51.704;5.146;2023-03-08T23:34:59;56.92;;;45.13;;
55483;SDS011;41345;51.704;5.146;2023-03-08T23:40:00;59.08;;;46.63;;
55483;SDS011;41345;51.704;5.146;2023-03-08T23:45:00;68.03;;;50.15;;
55483;SDS011;41345;51.704;5.146;2023-03-08T23:50:00;75.18;;;52.05;;
55483;SDS011;41345;51.704;5.146;2023-03-08T23:55:00;67.28;;;48.40;;
